createdAt,value
2019-02-09T00:00:34.617Z,2.27
2019-02-09T00:03:22.450Z,2.10
2019-02-09T00:06:09.794Z,2.27
2019-02-09T00:08:57.727Z,2.27
2019-02-09T00:11:45.178Z,2.40
2019-02-09T00:14:37.535Z,2.20
2019-02-09T00:17:25.517Z,2.60
2019-02-09T00:20:13.136Z,2.27
2019-02-09T00:23:32.185Z,2.37
2019-02-09T00:29:33.361Z,2.03
2019-02-09T00:32:22.558Z,2.40
2019-02-09T00:35:10.569Z,2.50
2019-02-09T00:37:58.146Z,2.40
2019-02-09T00:40:48.086Z,2.40
2019-02-09T00:43:35.316Z,2.47
2019-02-09T00:46:23.954Z,10.50
2019-02-09T00:49:11.604Z,3.30
2019-02-09T00:51:59.044Z,2.60
2019-02-09T00:54:54.495Z,2.43
2019-02-09T00:57:41.734Z,2.97
2019-02-09T01:00:29.345Z,2.43
2019-02-09T01:03:17.363Z,2.27
2019-02-09T01:06:05.276Z,2.50
2019-02-09T01:08:53.077Z,2.47
2019-02-09T01:11:40.724Z,2.77
2019-02-09T01:14:28.324Z,2.43
2019-02-09T01:17:15.375Z,2.60
2019-02-09T01:20:02.635Z,2.47
2019-02-09T01:22:50.087Z,2.60
2019-02-09T01:25:37.867Z,2.70
2019-02-09T01:28:25.761Z,2.80
2019-02-09T01:31:13.165Z,2.40
2019-02-09T01:34:00.490Z,2.70
2019-02-09T01:36:48.324Z,3.37
2019-02-09T01:39:35.810Z,4.43
2019-02-09T01:42:23.381Z,3.20
2019-02-09T01:45:12.312Z,2.97
2019-02-09T01:48:00.427Z,3.23
2019-02-09T01:50:47.831Z,3.13
2019-02-09T01:53:35.037Z,2.90
2019-02-09T01:56:22.668Z,2.97
2019-02-09T01:59:10.153Z,3.00
2019-02-09T02:01:59.360Z,3.07
2019-02-09T02:04:46.450Z,2.73
2019-02-09T02:07:34.059Z,3.00
2019-02-09T02:10:28.660Z,2.83
2019-02-09T02:13:16.395Z,2.70
2019-02-09T02:16:04.151Z,3.00
2019-02-09T02:18:51.445Z,5.33
2019-02-09T02:21:38.928Z,3.40
2019-02-09T02:24:29.828Z,2.90
2019-02-09T02:27:17.519Z,3.70
2019-02-09T02:30:06.198Z,3.60
2019-02-09T02:32:54.048Z,3.50
2019-02-09T02:35:41.615Z,3.50
2019-02-09T02:38:29.051Z,3.30
2019-02-09T02:41:17.030Z,3.43
2019-02-09T02:44:10.880Z,3.70
2019-02-09T02:46:58.625Z,3.70
2019-02-09T02:49:45.993Z,3.53
2019-02-09T02:52:35.608Z,3.50
2019-02-09T02:55:49.177Z,3.50
2019-02-09T02:58:40.986Z,2.90
2019-02-09T03:01:28.458Z,3.63
2019-02-09T03:04:23.970Z,3.13
2019-02-09T03:07:11.386Z,3.00
2019-02-09T03:09:59.593Z,2.83
2019-02-09T03:12:46.652Z,2.77
2019-02-09T03:15:34.237Z,2.80
2019-02-09T03:18:21.904Z,2.73
2019-02-09T03:21:10.647Z,2.37
2019-02-09T03:24:02.121Z,2.60
2019-02-09T03:26:49.238Z,2.40
2019-02-09T03:29:37.054Z,2.37
2019-02-09T03:32:24.452Z,2.50
2019-02-09T03:35:11.950Z,2.40
2019-02-09T03:37:59.570Z,2.13
2019-02-09T03:40:47.448Z,2.33
2019-02-09T03:43:35.013Z,2.33
2019-02-09T03:46:22.658Z,2.40
2019-02-09T03:49:10.164Z,2.40
2019-02-09T03:51:57.406Z,2.17
2019-02-09T03:54:44.899Z,2.80
2019-02-09T03:57:32.472Z,2.40
2019-02-09T04:00:20.884Z,2.33
2019-02-09T04:03:11.390Z,2.50
2019-02-09T04:05:58.677Z,2.30
2019-02-09T04:08:45.845Z,2.33
2019-02-09T04:11:33.261Z,2.30
2019-02-09T04:14:20.691Z,2.67
2019-02-09T04:17:08.429Z,2.70
2019-02-09T04:19:56.125Z,2.23
2019-02-09T04:22:43.635Z,2.27
2019-02-09T04:25:31.422Z,2.40
2019-02-09T04:28:18.657Z,2.40
2019-02-09T04:31:06.917Z,2.80
2019-02-09T04:33:54.357Z,2.60
2019-02-09T04:36:41.521Z,2.73
2019-02-09T04:39:28.529Z,2.37
2019-02-09T04:42:18.684Z,2.33
2019-02-09T04:45:06.546Z,2.80
2019-02-09T04:47:54.104Z,2.53
2019-02-09T04:50:41.687Z,2.50
2019-02-09T04:53:35.261Z,2.50
2019-02-09T04:56:32.041Z,2.50
2019-02-09T04:59:19.896Z,2.70
2019-02-09T05:02:07.599Z,2.63
2019-02-09T05:04:55.165Z,2.40
2019-02-09T05:07:42.541Z,2.93
2019-02-09T05:10:29.981Z,2.43
2019-02-09T05:13:17.350Z,2.50
2019-02-09T05:16:05.156Z,2.60
2019-02-09T05:18:51.968Z,2.50
2019-02-09T05:21:39.625Z,2.70
2019-02-09T05:24:27.157Z,2.63
2019-02-09T05:27:14.471Z,2.10
2019-02-09T05:30:03.155Z,2.70
2019-02-09T05:32:51.108Z,2.50
2019-02-09T05:35:38.390Z,2.87
2019-02-09T05:38:25.452Z,2.50
2019-02-09T05:41:12.845Z,2.43
2019-02-09T05:44:00.060Z,2.70
2019-02-09T05:46:47.795Z,2.70
2019-02-09T05:50:03.498Z,2.67
2019-02-09T05:52:56.211Z,2.43
2019-02-09T05:55:43.981Z,2.20
2019-02-09T05:58:33.619Z,2.40
2019-02-09T06:01:21.451Z,2.30
2019-02-09T06:04:09.410Z,2.27
2019-02-09T06:07:03.232Z,2.37
2019-02-09T06:09:50.412Z,2.40
2019-02-09T06:12:37.892Z,2.00
2019-02-09T06:15:25.556Z,2.30
2019-02-09T06:18:13.293Z,2.60
2019-02-09T06:21:11.336Z,2.07
2019-02-09T06:23:58.743Z,2.43
2019-02-09T06:26:46.176Z,2.50
2019-02-09T06:29:33.645Z,2.70
2019-02-09T06:32:20.762Z,2.63
2019-02-09T06:35:08.403Z,2.80
2019-02-09T06:37:55.990Z,3.17
2019-02-09T06:40:43.305Z,3.33
2019-02-09T06:43:30.488Z,3.40
2019-02-09T06:46:17.947Z,3.97
2019-02-09T06:49:05.571Z,3.30
2019-02-09T06:51:55.503Z,3.70
2019-02-09T06:54:42.830Z,4.17
2019-02-09T06:57:30.472Z,4.40
2019-02-09T07:00:18.266Z,4.47
2019-02-09T07:03:06.335Z,4.00
2019-02-09T07:05:53.633Z,4.40
2019-02-09T07:08:41.266Z,4.40
2019-02-09T07:11:28.943Z,4.37
2019-02-09T07:14:17.081Z,4.30
2019-02-09T07:17:04.971Z,3.87
2019-02-09T07:19:52.258Z,4.37
2019-02-09T07:22:39.761Z,4.10
2019-02-09T07:25:27.174Z,4.40
2019-02-09T07:28:14.711Z,4.50
2019-02-09T07:31:02.037Z,3.90
2019-02-09T07:33:49.778Z,4.77
2019-02-09T07:36:37.393Z,4.40
2019-02-09T07:39:25.000Z,4.47
2019-02-09T07:42:12.426Z,4.37
2019-02-09T07:44:59.423Z,4.40
2019-02-09T07:47:46.859Z,4.40
2019-02-09T07:50:34.637Z,4.90
2019-02-09T07:53:22.161Z,4.77
2019-02-09T07:56:09.265Z,4.60
2019-02-09T07:58:56.402Z,5.10
2019-02-09T08:01:43.842Z,4.50
2019-02-09T08:04:31.388Z,4.90
2019-02-09T08:07:19.051Z,4.57
2019-02-09T08:10:08.653Z,4.73
2019-02-09T08:12:56.030Z,4.80
2019-02-09T08:15:43.603Z,4.07
2019-02-09T08:18:31.671Z,4.30
2019-02-09T08:21:18.808Z,3.90
2019-02-09T08:24:07.393Z,4.10
2019-02-09T08:26:54.830Z,4.37
2019-02-09T08:29:42.374Z,4.27
2019-02-09T08:32:29.474Z,4.13
2019-02-09T08:35:16.897Z,4.27
2019-02-09T08:38:04.736Z,3.97
2019-02-09T08:40:52.055Z,4.17
2019-02-09T08:43:39.568Z,4.10
2019-02-09T08:46:26.588Z,3.70
2019-02-09T08:49:13.995Z,3.70
2019-02-09T08:52:01.447Z,4.07
2019-02-09T08:54:49.355Z,3.77
2019-02-09T08:57:36.944Z,3.50
2019-02-09T09:00:25.286Z,4.13
2019-02-09T09:03:12.877Z,3.63
2019-02-09T09:06:00.257Z,4.20
2019-02-09T09:08:47.671Z,4.03
2019-02-09T09:11:35.179Z,4.10
2019-02-09T09:14:22.929Z,4.57
2019-02-09T09:17:10.033Z,4.70
2019-02-09T09:19:57.253Z,4.73
2019-02-09T09:22:44.644Z,4.43
2019-02-09T09:25:32.103Z,4.60
2019-02-09T09:28:19.086Z,4.43
2019-02-09T09:31:06.905Z,4.57
2019-02-09T09:33:54.077Z,4.03
2019-02-09T09:36:41.113Z,4.30
2019-02-09T09:39:28.667Z,4.13
2019-02-09T09:42:15.778Z,4.20
2019-02-09T09:45:03.249Z,4.57
2019-02-09T09:47:50.814Z,4.40
2019-02-09T09:50:38.044Z,4.40
2019-02-09T09:53:25.522Z,4.40
2019-02-09T09:56:14.308Z,4.43
2019-02-09T09:59:01.421Z,4.30
2019-02-09T10:01:48.921Z,4.40
2019-02-09T10:04:36.706Z,4.73
2019-02-09T10:07:24.281Z,4.60
2019-02-09T10:10:13.319Z,4.63
2019-02-09T10:13:00.559Z,4.30
2019-02-09T10:15:48.431Z,4.00
2019-02-09T10:18:35.967Z,4.40
2019-02-09T10:21:23.566Z,4.33
2019-02-09T10:24:11.336Z,3.60
2019-02-09T10:26:58.780Z,4.57
2019-02-09T10:29:46.355Z,3.93
2019-02-09T10:32:33.889Z,3.77
2019-02-09T10:35:22.521Z,4.40
2019-02-09T10:38:09.910Z,4.03
2019-02-09T10:40:57.491Z,3.60
2019-02-09T10:43:46.812Z,3.90
2019-02-09T10:46:34.180Z,4.07
2019-02-09T10:49:21.264Z,4.17
2019-02-09T10:52:09.206Z,4.00
2019-02-09T10:54:56.553Z,4.20
2019-02-09T10:57:44.029Z,3.90
2019-02-09T11:00:38.733Z,4.00
2019-02-09T11:03:26.109Z,3.50
2019-02-09T11:06:13.197Z,3.67
2019-02-09T11:09:00.264Z,3.70
2019-02-09T11:11:47.830Z,3.97
2019-02-09T11:14:34.843Z,3.30
2019-02-09T11:17:22.401Z,3.70
2019-02-09T11:20:10.952Z,3.57
2019-02-09T11:22:58.605Z,3.50
2019-02-09T11:25:45.753Z,3.47
2019-02-09T11:28:32.867Z,3.30
2019-02-09T11:31:20.327Z,3.33
2019-02-09T11:34:07.473Z,3.57
2019-02-09T11:36:54.984Z,3.40
2019-02-09T11:39:42.566Z,3.20
2019-02-09T11:42:29.611Z,2.90
2019-02-09T11:45:18.944Z,3.43
2019-02-09T11:48:06.649Z,3.30
2019-02-09T11:50:54.098Z,3.03
2019-02-09T11:53:41.579Z,3.20
2019-02-09T11:56:29.441Z,2.80
2019-02-09T11:59:16.805Z,3.13
2019-02-09T12:02:04.606Z,2.93
2019-02-09T12:04:53.264Z,3.50
2019-02-09T12:07:41.401Z,3.60
2019-02-09T12:10:28.700Z,3.40
2019-02-09T12:13:16.073Z,3.03
2019-02-09T12:16:03.143Z,3.30
2019-02-09T12:18:50.578Z,3.50
2019-02-09T12:21:37.852Z,3.00
2019-02-09T12:24:25.571Z,2.93
2019-02-09T12:27:12.960Z,2.53
2019-02-09T12:30:00.639Z,2.93
2019-02-09T12:32:47.918Z,2.90
2019-02-09T12:35:35.424Z,2.53
2019-02-09T12:38:23.054Z,3.20
2019-02-09T12:41:10.109Z,2.50
2019-02-09T12:43:57.886Z,2.33
2019-02-09T12:46:45.148Z,2.47
2019-02-09T12:49:32.358Z,2.53
2019-02-09T12:52:20.183Z,2.53
2019-02-09T12:55:07.575Z,7.27
2019-02-09T12:57:55.424Z,6.20
2019-02-09T13:00:43.377Z,2.70
2019-02-09T13:03:31.584Z,2.90
2019-02-09T13:06:19.052Z,2.70
2019-02-09T13:09:07.804Z,2.40
2019-02-09T13:11:55.533Z,2.60
2019-02-09T13:14:45.128Z,2.60
2019-02-09T13:17:32.530Z,2.53
2019-02-09T13:20:20.644Z,2.33
2019-02-09T13:23:12.483Z,2.90
2019-02-09T13:25:59.797Z,2.10
2019-02-09T13:28:46.975Z,2.17
2019-02-09T13:31:34.637Z,2.30
2019-02-09T13:34:22.014Z,2.30
2019-02-09T13:37:09.187Z,2.30
2019-02-09T13:39:56.714Z,2.50
2019-02-09T13:42:44.047Z,2.20
2019-02-09T13:45:32.706Z,2.27
2019-02-09T13:48:20.538Z,2.20
2019-02-09T13:51:07.506Z,1.93
2019-02-09T13:53:54.589Z,2.00
2019-02-09T13:56:41.906Z,2.10
2019-02-09T13:59:29.188Z,1.87
2019-02-09T14:02:16.701Z,5.43
2019-02-09T14:05:04.444Z,2.83
2019-02-09T14:07:52.150Z,1.87
2019-02-09T14:10:39.688Z,1.87
2019-02-09T14:13:26.952Z,1.57
2019-02-09T14:16:14.446Z,2.17
2019-02-09T14:19:01.970Z,1.67
2019-02-09T14:21:49.768Z,1.83
2019-02-09T14:24:37.122Z,1.70
2019-02-09T14:27:26.360Z,1.77
2019-02-09T14:30:18.477Z,1.50
2019-02-09T14:33:07.947Z,1.73
2019-02-09T14:35:55.403Z,1.70
2019-02-09T14:38:42.760Z,1.80
2019-02-09T14:41:30.053Z,1.50
2019-02-09T14:44:17.561Z,1.70
2019-02-09T14:47:04.846Z,2.40
2019-02-09T14:49:52.329Z,1.67
2019-02-09T14:52:39.791Z,1.80
2019-02-09T14:55:28.490Z,1.73
2019-02-09T14:58:15.859Z,1.47
2019-02-09T15:01:03.062Z,1.70
2019-02-09T15:03:50.617Z,1.70
2019-02-09T15:06:37.980Z,1.70
2019-02-09T15:09:25.239Z,1.67
2019-02-09T15:12:12.766Z,1.40
2019-02-09T15:15:00.406Z,1.40
2019-02-09T15:17:48.191Z,1.50
2019-02-09T15:20:36.692Z,1.67
2019-02-09T15:23:24.019Z,1.50
2019-02-09T15:26:12.639Z,1.57
2019-02-09T15:28:59.935Z,1.50
2019-02-09T15:31:47.456Z,1.60
2019-02-09T15:34:35.068Z,1.50
2019-02-09T15:37:24.741Z,1.63
2019-02-09T15:40:13.869Z,2.30
2019-02-09T15:43:01.076Z,1.63
2019-02-09T15:45:48.529Z,2.23
2019-02-09T15:48:35.697Z,2.03
2019-02-09T15:51:22.964Z,1.93
2019-02-09T15:54:11.990Z,1.90
2019-02-09T15:56:59.796Z,1.87
2019-02-09T15:59:47.895Z,6.60
2019-02-09T16:02:36.170Z,3.00
2019-02-09T16:05:23.788Z,2.40
2019-02-09T16:08:13.754Z,2.30
2019-02-09T16:14:27.193Z,2.30
2019-02-09T16:21:02.198Z,2.47
2019-02-09T16:21:05.781Z,2.63
2019-02-09T16:24:40.547Z,2.50
2019-02-09T16:27:33.084Z,2.30
2019-02-09T16:30:24.114Z,2.37
2019-02-09T16:40:26.549Z,2.50
2019-02-09T16:50:00.742Z,2.37
2019-02-09T16:52:56.141Z,2.40
2019-02-09T17:12:53.645Z,2.30
2019-02-09T17:29:43.828Z,2.20
2019-02-09T17:47:21.484Z,1.90
2019-02-09T17:50:50.463Z,2.00
2019-02-09T18:05:51.052Z,3.23
2019-02-09T18:06:34.021Z,1.80
2019-02-09T18:09:57.056Z,1.83
2019-02-09T18:13:14.302Z,1.97
2019-02-09T18:25:28.847Z,1.90
2019-02-09T18:28:16.888Z,2.10
2019-02-09T18:31:21.255Z,1.73
2019-02-09T18:34:18.329Z,1.80
2019-02-09T18:43:40.917Z,2.10
2019-02-09T18:46:28.145Z,1.80
2019-02-09T18:49:15.560Z,1.93
2019-02-09T18:52:03.073Z,1.57
2019-02-09T18:54:50.601Z,1.70
2019-02-09T18:57:37.759Z,1.63
2019-02-09T19:00:26.319Z,1.87
2019-02-09T19:03:13.743Z,1.90
2019-02-09T19:06:01.337Z,2.80
2019-02-09T19:08:48.875Z,1.90
2019-02-09T19:11:36.178Z,1.73
2019-02-09T19:14:23.727Z,1.40
2019-02-09T19:17:11.358Z,1.83
2019-02-09T19:19:58.950Z,1.83
2019-02-09T19:22:46.746Z,1.50
2019-02-09T19:25:34.651Z,1.80
2019-02-09T19:28:21.662Z,1.70
2019-02-09T19:31:09.334Z,1.37
2019-02-09T19:33:56.850Z,1.83
2019-02-09T19:36:44.059Z,1.60
2019-02-09T19:39:31.567Z,1.50
2019-02-09T19:42:19.216Z,1.83
2019-02-09T19:45:08.454Z,1.67
2019-02-09T19:47:56.264Z,1.70
2019-02-09T19:50:43.836Z,1.60
2019-02-09T19:53:31.397Z,1.60
2019-02-09T19:56:18.951Z,1.43
2019-02-09T19:59:06.830Z,1.70
2019-02-09T20:01:54.327Z,1.43
2019-02-09T20:04:41.919Z,1.47
2019-02-09T20:07:28.872Z,1.60
2019-02-09T20:10:19.219Z,1.50
2019-02-09T20:13:07.247Z,1.70
2019-02-09T20:15:54.507Z,1.47
2019-02-09T20:18:42.247Z,1.60
2019-02-09T20:21:29.886Z,1.80
2019-02-09T20:24:17.518Z,1.70
2019-02-09T20:27:04.603Z,2.00
2019-02-09T20:29:52.311Z,2.00
2019-02-09T20:32:39.807Z,1.60
2019-02-09T20:35:28.068Z,2.17
2019-02-09T20:38:15.555Z,2.10
2019-02-09T20:41:04.359Z,1.90
2019-02-09T20:43:51.319Z,2.13
2019-02-09T20:46:38.807Z,2.23
2019-02-09T20:49:26.462Z,2.10
2019-02-09T20:52:13.885Z,1.80
2019-02-09T20:55:01.381Z,2.20
2019-02-09T20:57:49.054Z,2.80
2019-02-09T21:00:36.069Z,1.90
2019-02-09T21:03:23.287Z,1.97
2019-02-09T21:06:10.500Z,2.20
2019-02-09T21:08:58.161Z,2.80
2019-02-09T21:11:45.770Z,2.00
2019-02-09T21:14:32.712Z,2.40
2019-02-09T21:17:20.237Z,2.50
2019-02-09T21:20:08.020Z,2.37
2019-02-09T21:22:55.290Z,2.90
2019-02-09T21:25:42.823Z,2.37
2019-02-09T21:28:30.143Z,2.13
2019-02-09T21:31:17.843Z,2.53
2019-02-09T21:34:05.575Z,2.67
2019-02-09T21:36:52.483Z,2.33
2019-02-09T21:39:39.784Z,2.40
2019-02-09T21:42:27.291Z,2.43
2019-02-09T21:45:15.201Z,2.50
2019-02-09T21:48:02.454Z,2.67
2019-02-09T21:50:49.498Z,2.40
2019-02-09T21:53:37.121Z,2.53
2019-02-09T21:56:24.603Z,2.37
2019-02-09T21:59:12.057Z,3.00
2019-02-09T22:01:59.544Z,2.03
2019-02-09T22:04:47.067Z,2.30
2019-02-09T22:07:34.850Z,2.67
2019-02-09T22:10:29.432Z,2.47
2019-02-09T22:13:11.448Z,1.63
2019-02-09T22:15:58.952Z,1.60
2019-02-09T22:18:46.644Z,1.53
2019-02-09T22:21:34.185Z,2.00
2019-02-09T22:24:21.209Z,1.30
2019-02-09T22:27:08.634Z,2.00
2019-02-09T22:29:56.056Z,2.27
2019-02-09T22:32:43.679Z,2.10
2019-02-09T22:35:30.970Z,1.60
2019-02-09T22:38:18.390Z,1.43
2019-02-09T22:41:05.428Z,1.77
2019-02-09T22:43:52.645Z,1.97
2019-02-09T22:46:40.180Z,1.67
2019-02-09T22:49:27.623Z,2.13
2019-02-09T22:52:15.221Z,1.70
2019-02-09T22:55:02.441Z,1.80
2019-02-09T22:57:49.924Z,1.70
2019-02-09T23:00:52.819Z,2.00
2019-02-09T23:03:45.047Z,1.90
2019-02-09T23:06:35.195Z,2.08
2019-02-09T23:09:23.559Z,1.80
2019-02-09T23:12:10.783Z,1.70
2019-02-09T23:14:58.366Z,2.00
2019-02-09T23:17:45.867Z,1.80
2019-02-09T23:20:33.480Z,1.70
2019-02-09T23:23:21.145Z,1.90
2019-02-09T23:26:08.874Z,1.40
2019-02-09T23:28:55.851Z,1.57
2019-02-09T23:31:43.412Z,1.63
2019-02-09T23:34:31.062Z,3.40
2019-02-09T23:37:18.227Z,1.37
2019-02-09T23:40:05.482Z,1.63
2019-02-09T23:42:54.328Z,1.40
2019-02-09T23:45:41.141Z,1.57
2019-02-09T23:48:28.107Z,1.80
2019-02-09T23:51:15.371Z,1.40
2019-02-09T23:54:02.664Z,1.60
2019-02-09T23:56:50.200Z,1.47
2019-02-09T23:59:37.688Z,1.70
